sensor_id;sensor_type;location;lat;lon;timestamp;temperature;humidity
31639;DHT22;18248;51.522;7.020;2023-02-18T00:02:04;12.10;99.90
31639;DHT22;18248;51.522;7.020;2023-02-18T00:05:02;12.10;99.90
31639;DHT22;18248;51.522;7.020;2023-02-18T00:08:03;12.10;99.90
31639;DHT22;18248;51.522;7.020;2023-02-18T00:11:04;12.10;99.90
31639;DHT22;18248;51.522;7.020;2023-02-18T00:14:09;12.10;99.90
31639;DHT22;18248;51.522;7.020;2023-02-18T00:17:08;12.10;99.90
31639;DHT22;18248;51.522;7.020;2023-02-18T00:20:07;12.10;99.90
31639;DHT22;18248;51.522;7.020;2023-02-18T00:23:06;12.10;99.90
31639;DHT22;18248;51.522;7.020;2023-02-18T00:26:07;12.10;99.90
31639;DHT22;18248;51.522;7.020;2023-02-18T00:29:06;12.00;99.90
31639;DHT22;18248;51.522;7.020;2023-02-18T00:32:05;12.00;99.90
31639;DHT22;18248;51.522;7.020;2023-02-18T00:35:03;12.10;99.90
31639;DHT22;18248;51.522;7.020;2023-02-18T00:38:02;12.10;99.90
31639;DHT22;18248;51.522;7.020;2023-02-18T00:41:02;12.00;99.90
31639;DHT22;18248;51.522;7.020;2023-02-18T00:44:01;12.00;99.90
31639;DHT22;18248;51.522;7.020;2023-02-18T00:47:00;12.00;99.90
31639;DHT22;18248;51.522;7.020;2023-02-18T00:49:58;12.00;99.90
31639;DHT22;18248;51.522;7.020;2023-02-18T00:52:58;12.00;99.90
31639;DHT22;18248;51.522;7.020;2023-02-18T00:55:57;12.10;99.90
31639;DHT22;18248;51.522;7.020;2023-02-18T00:58:55;12.00;99.90
31639;DHT22;18248;51.522;7.020;2023-02-18T01:01:54;12.00;99.90
31639;DHT22;18248;51.522;7.020;2023-02-18T01:04:52;12.00;99.90
31639;DHT22;18248;51.522;7.020;2023-02-18T01:07:51;12.00;99.90
31639;DHT22;18248;51.522;7.020;2023-02-18T01:10:56;12.00;99.90
31639;DHT22;18248;51.522;7.020;2023-02-18T01:13:55;11.90;99.90
31639;DHT22;18248;51.522;7.020;2023-02-18T01:16:53;11.90;99.90
31639;DHT22;18248;51.522;7.020;2023-02-18T01:19:52;12.00;99.90
31639;DHT22;18248;51.522;7.020;2023-02-18T01:22:51;11.90;99.90
31639;DHT22;18248;51.522;7.020;2023-02-18T01:25:49;11.90;99.90
31639;DHT22;18248;51.522;7.020;2023-02-18T01:28:48;12.00;99.90
31639;DHT22;18248;51.522;7.020;2023-02-18T01:31:47;12.00;99.90
31639;DHT22;18248;51.522;7.020;2023-02-18T01:34:45;12.00;99.90
31639;DHT22;18248;51.522;7.020;2023-02-18T01:37:44;12.00;99.90
31639;DHT22;18248;51.522;7.020;2023-02-18T01:40:49;12.00;99.90
31639;DHT22;18248;51.522;7.020;2023-02-18T01:47:08;11.90;99.90
31639;DHT22;18248;51.522;7.020;2023-02-18T01:50:06;11.90;99.90
31639;DHT22;18248;51.522;7.020;2023-02-18T01:53:06;11.90;99.90
31639;DHT22;18248;51.522;7.020;2023-02-18T01:56:07;11.90;99.90
31639;DHT22;18248;51.522;7.020;2023-02-18T01:59:12;11.90;99.90
31639;DHT22;18248;51.522;7.020;2023-02-18T02:02:13;11.90;99.90
31639;DHT22;18248;51.522;7.020;2023-02-18T02:05:13;11.90;99.90
31639;DHT22;18248;51.522;7.020;2023-02-18T02:08:11;11.90;99.90
31639;DHT22;18248;51.522;7.020;2023-02-18T02:11:26;11.90;99.90
31639;DHT22;18248;51.522;7.020;2023-02-18T02:35:04;11.90;99.90
31639;DHT22;18248;51.522;7.020;2023-02-18T02:38:18;11.90;99.90
31639;DHT22;18248;51.522;7.020;2023-02-18T02:42:21;11.90;99.90
31639;DHT22;18248;51.522;7.020;2023-02-18T02:48:18;11.90;99.90
31639;DHT22;18248;51.522;7.020;2023-02-18T02:51:27;12.00;99.90
31639;DHT22;18248;51.522;7.020;2023-02-18T02:54:27;11.90;99.90
31639;DHT22;18248;51.522;7.020;2023-02-18T03:23:15;11.70;99.90
31639;DHT22;18248;51.522;7.020;2023-02-18T03:26:17;11.70;99.90
31639;DHT22;18248;51.522;7.020;2023-02-18T03:29:18;11.70;99.90
31639;DHT22;18248;51.522;7.020;2023-02-18T03:32:20;11.70;99.90
31639;DHT22;18248;51.522;7.020;2023-02-18T03:35:19;11.70;99.90
31639;DHT22;18248;51.522;7.020;2023-02-18T03:38:27;11.70;99.90
31639;DHT22;18248;51.522;7.020;2023-02-18T03:41:27;11.70;99.90
31639;DHT22;18248;51.522;7.020;2023-02-18T03:44:26;11.70;99.90
31639;DHT22;18248;51.522;7.020;2023-02-18T03:47:24;11.70;99.90
31639;DHT22;18248;51.522;7.020;2023-02-18T03:50:23;11.70;99.90
31639;DHT22;18248;51.522;7.020;2023-02-18T03:53:21;11.70;99.90
31639;DHT22;18248;51.522;7.020;2023-02-18T03:56:20;11.70;99.90
31639;DHT22;18248;51.522;7.020;2023-02-18T03:59:19;11.70;99.90
31639;DHT22;18248;51.522;7.020;2023-02-18T04:02:18;11.70;99.90
31639;DHT22;18248;51.522;7.020;2023-02-18T04:05:16;11.70;99.90
31639;DHT22;18248;51.522;7.020;2023-02-18T04:08:15;11.70;99.90
31639;DHT22;18248;51.522;7.020;2023-02-18T04:11:13;11.70;99.90
31639;DHT22;18248;51.522;7.020;2023-02-18T04:14:13;11.70;99.90
31639;DHT22;18248;51.522;7.020;2023-02-18T04:17:12;11.80;99.90
31639;DHT22;18248;51.522;7.020;2023-02-18T04:20:11;11.80;99.90
31639;DHT22;18248;51.522;7.020;2023-02-18T04:23:09;11.80;99.90
31639;DHT22;18248;51.522;7.020;2023-02-18T04:26:08;11.80;99.90
31639;DHT22;18248;51.522;7.020;2023-02-18T04:29:06;11.80;99.90
31639;DHT22;18248;51.522;7.020;2023-02-18T04:32:05;11.80;99.90
31639;DHT22;18248;51.522;7.020;2023-02-18T04:35:04;11.80;99.90
31639;DHT22;18248;51.522;7.020;2023-02-18T04:38:03;11.80;99.90
31639;DHT22;18248;51.522;7.020;2023-02-18T04:41:01;11.80;99.90
31639;DHT22;18248;51.522;7.020;2023-02-18T04:44:00;11.80;99.90
31639;DHT22;18248;51.522;7.020;2023-02-18T04:46:58;11.80;99.90
31639;DHT22;18248;51.522;7.020;2023-02-18T04:49:57;11.80;99.90
31639;DHT22;18248;51.522;7.020;2023-02-18T04:52:57;11.70;99.90
31639;DHT22;18248;51.522;7.020;2023-02-18T04:55:55;11.70;99.90
31639;DHT22;18248;51.522;7.020;2023-02-18T04:58:54;11.70;99.90
31639;DHT22;18248;51.522;7.020;2023-02-18T05:01:52;11.70;99.90
31639;DHT22;18248;51.522;7.020;2023-02-18T05:04:51;11.60;99.90
31639;DHT22;18248;51.522;7.020;2023-02-18T05:07:49;11.60;99.90
31639;DHT22;18248;51.522;7.020;2023-02-18T05:10:48;11.60;99.90
31639;DHT22;18248;51.522;7.020;2023-02-18T05:13:47;11.60;99.90
31639;DHT22;18248;51.522;7.020;2023-02-18T05:16:45;11.60;99.90
31639;DHT22;18248;51.522;7.020;2023-02-18T05:19:44;11.50;99.90
31639;DHT22;18248;51.522;7.020;2023-02-18T05:22:42;11.50;99.90
31639;DHT22;18248;51.522;7.020;2023-02-18T05:25:41;11.50;99.90
31639;DHT22;18248;51.522;7.020;2023-02-18T05:28:40;11.50;99.90
31639;DHT22;18248;51.522;7.020;2023-02-18T05:31:38;11.50;99.90
31639;DHT22;18248;51.522;7.020;2023-02-18T05:34:37;11.50;99.90
31639;DHT22;18248;51.522;7.020;2023-02-18T05:37:35;11.50;99.90
31639;DHT22;18248;51.522;7.020;2023-02-18T05:40:34;11.50;99.90
31639;DHT22;18248;51.522;7.020;2023-02-18T05:43:33;11.50;99.90
31639;DHT22;18248;51.522;7.020;2023-02-18T05:46:52;11.50;99.90
31639;DHT22;18248;51.522;7.020;2023-02-18T05:49:50;11.40;99.90
31639;DHT22;18248;51.522;7.020;2023-02-18T05:52:49;11.40;99.90
31639;DHT22;18248;51.522;7.020;2023-02-18T05:55:47;11.40;99.90
31639;DHT22;18248;51.522;7.020;2023-02-18T05:58:46;11.50;99.90
31639;DHT22;18248;51.522;7.020;2023-02-18T06:01:45;11.40;99.90
31639;DHT22;18248;51.522;7.020;2023-02-18T06:04:44;11.40;99.90
31639;DHT22;18248;51.522;7.020;2023-02-18T06:07:42;11.40;99.90
31639;DHT22;18248;51.522;7.020;2023-02-18T06:10:41;11.40;99.90
31639;DHT22;18248;51.522;7.020;2023-02-18T06:13:39;11.40;99.90
31639;DHT22;18248;51.522;7.020;2023-02-18T06:16:38;11.40;99.90
31639;DHT22;18248;51.522;7.020;2023-02-18T06:19:37;11.40;99.90
31639;DHT22;18248;51.522;7.020;2023-02-18T06:22:35;11.40;99.90
31639;DHT22;18248;51.522;7.020;2023-02-18T06:25:34;11.40;99.90
31639;DHT22;18248;51.522;7.020;2023-02-18T06:28:32;11.40;99.90
31639;DHT22;18248;51.522;7.020;2023-02-18T06:31:31;11.40;99.90
31639;DHT22;18248;51.522;7.020;2023-02-18T06:34:30;11.40;99.90
31639;DHT22;18248;51.522;7.020;2023-02-18T06:37:28;11.40;99.90
31639;DHT22;18248;51.522;7.020;2023-02-18T06:40:27;11.30;99.90
31639;DHT22;18248;51.522;7.020;2023-02-18T06:43:25;11.40;99.90
31639;DHT22;18248;51.522;7.020;2023-02-18T06:46:26;11.30;99.90
31639;DHT22;18248;51.522;7.020;2023-02-18T06:49:24;11.30;99.90
31639;DHT22;18248;51.522;7.020;2023-02-18T06:52:23;11.30;99.90
31639;DHT22;18248;51.522;7.020;2023-02-18T06:55:22;11.30;99.90
31639;DHT22;18248;51.522;7.020;2023-02-18T06:58:20;11.30;99.90
31639;DHT22;18248;51.522;7.020;2023-02-18T07:01:20;11.30;99.90
31639;DHT22;18248;51.522;7.020;2023-02-18T07:04:19;11.30;99.90
31639;DHT22;18248;51.522;7.020;2023-02-18T07:07:17;11.30;99.90
31639;DHT22;18248;51.522;7.020;2023-02-18T07:10:16;11.20;99.90
31639;DHT22;18248;51.522;7.020;2023-02-18T07:13:14;11.20;99.90
31639;DHT22;18248;51.522;7.020;2023-02-18T07:16:20;11.20;99.90
31639;DHT22;18248;51.522;7.020;2023-02-18T07:19:19;11.20;99.90
31639;DHT22;18248;51.522;7.020;2023-02-18T07:22:17;11.20;99.90
31639;DHT22;18248;51.522;7.020;2023-02-18T07:25:16;11.20;99.90
31639;DHT22;18248;51.522;7.020;2023-02-18T07:28:15;11.20;99.90
31639;DHT22;18248;51.522;7.020;2023-02-18T07:31:15;11.20;99.90
31639;DHT22;18248;51.522;7.020;2023-02-18T07:34:14;11.20;99.90
31639;DHT22;18248;51.522;7.020;2023-02-18T07:37:13;11.20;99.90
31639;DHT22;18248;51.522;7.020;2023-02-18T07:40:14;11.30;99.90
31639;DHT22;18248;51.522;7.020;2023-02-18T07:43:12;11.20;99.90
31639;DHT22;18248;51.522;7.020;2023-02-18T07:46:11;11.30;99.90
31639;DHT22;18248;51.522;7.020;2023-02-18T07:49:10;11.20;99.90
31639;DHT22;18248;51.522;7.020;2023-02-18T07:52:08;11.20;99.90
31639;DHT22;18248;51.522;7.020;2023-02-18T07:55:07;11.20;99.90
31639;DHT22;18248;51.522;7.020;2023-02-18T07:58:06;11.20;99.90
31639;DHT22;18248;51.522;7.020;2023-02-18T08:01:06;11.20;99.90
31639;DHT22;18248;51.522;7.020;2023-02-18T08:04:06;11.30;99.90
31639;DHT22;18248;51.522;7.020;2023-02-18T08:07:05;11.30;99.90
31639;DHT22;18248;51.522;7.020;2023-02-18T08:10:04;11.30;99.90
31639;DHT22;18248;51.522;7.020;2023-02-18T08:13:02;11.30;99.90
31639;DHT22;18248;51.522;7.020;2023-02-18T08:16:01;11.40;99.90
31639;DHT22;18248;51.522;7.020;2023-02-18T08:19:00;11.40;99.90
31639;DHT22;18248;51.522;7.020;2023-02-18T08:22:01;11.40;99.90
31639;DHT22;18248;51.522;7.020;2023-02-18T08:25:00;11.40;99.90
31639;DHT22;18248;51.522;7.020;2023-02-18T08:27:59;11.40;99.90
31639;DHT22;18248;51.522;7.020;2023-02-18T08:30:57;11.40;99.90
31639;DHT22;18248;51.522;7.020;2023-02-18T08:33:57;11.40;99.90
31639;DHT22;18248;51.522;7.020;2023-02-18T08:36:56;11.40;99.90
31639;DHT22;18248;51.522;7.020;2023-02-18T08:39:55;11.40;99.90
31639;DHT22;18248;51.522;7.020;2023-02-18T08:42:53;11.40;99.90
31639;DHT22;18248;51.522;7.020;2023-02-18T08:45:53;11.30;99.90
31639;DHT22;18248;51.522;7.020;2023-02-18T10:10:02;11.10;99.90
31639;DHT22;18248;51.522;7.020;2023-02-18T10:13:02;11.00;99.90
31639;DHT22;18248;51.522;7.020;2023-02-18T10:16:01;11.00;99.90
31639;DHT22;18248;51.522;7.020;2023-02-18T10:22:24;11.10;99.90
31639;DHT22;18248;51.522;7.020;2023-02-18T10:25:23;11.00;99.90
31639;DHT22;18248;51.522;7.020;2023-02-18T10:28:24;11.10;99.90
31639;DHT22;18248;51.522;7.020;2023-02-18T10:31:36;11.00;99.90
31639;DHT22;18248;51.522;7.020;2023-02-18T10:34:53;11.10;99.90
31639;DHT22;18248;51.522;7.020;2023-02-18T10:44:29;11.10;99.90
31639;DHT22;18248;51.522;7.020;2023-02-18T10:47:59;11.10;99.90
31639;DHT22;18248;51.522;7.020;2023-02-18T10:51:15;11.10;99.90
31639;DHT22;18248;51.522;7.020;2023-02-18T10:54:14;11.00;99.90
31639;DHT22;18248;51.522;7.020;2023-02-18T10:57:18;11.00;99.90
31639;DHT22;18248;51.522;7.020;2023-02-18T11:00:23;11.00;99.90
31639;DHT22;18248;51.522;7.020;2023-02-18T11:03:42;10.90;99.90
31639;DHT22;18248;51.522;7.020;2023-02-18T11:06:44;10.80;99.90
31639;DHT22;18248;51.522;7.020;2023-02-18T11:10:17;10.80;99.90
31639;DHT22;18248;51.522;7.020;2023-02-18T11:13:23;10.90;99.90
31639;DHT22;18248;51.522;7.020;2023-02-18T11:16:45;10.80;99.90
31639;DHT22;18248;51.522;7.020;2023-02-18T11:23:22;10.80;99.90
31639;DHT22;18248;51.522;7.020;2023-02-18T11:26:29;10.80;99.90
31639;DHT22;18248;51.522;7.020;2023-02-18T11:29:31;10.80;99.90
31639;DHT22;18248;51.522;7.020;2023-02-18T11:32:33;10.80;99.90
31639;DHT22;18248;51.522;7.020;2023-02-18T11:35:33;10.80;99.90
31639;DHT22;18248;51.522;7.020;2023-02-18T11:38:46;10.80;99.90
31639;DHT22;18248;51.522;7.020;2023-02-18T11:41:52;10.80;99.90
31639;DHT22;18248;51.522;7.020;2023-02-18T11:44:57;10.90;99.90
31639;DHT22;18248;51.522;7.020;2023-02-18T11:48:00;10.80;99.90
31639;DHT22;18248;51.522;7.020;2023-02-18T11:51:00;10.80;99.90
31639;DHT22;18248;51.522;7.020;2023-02-18T11:54:02;10.80;99.90
31639;DHT22;18248;51.522;7.020;2023-02-18T11:57:10;10.70;99.90
31639;DHT22;18248;51.522;7.020;2023-02-18T12:00:36;10.80;99.90
31639;DHT22;18248;51.522;7.020;2023-02-18T12:07:29;10.80;99.90
31639;DHT22;18248;51.522;7.020;2023-02-18T12:10:41;10.80;99.90
31639;DHT22;18248;51.522;7.020;2023-02-18T12:13:47;10.80;99.90
31639;DHT22;18248;51.522;7.020;2023-02-18T12:17:06;10.80;99.90
31639;DHT22;18248;51.522;7.020;2023-02-18T12:23:52;10.90;99.90
31639;DHT22;18248;51.522;7.020;2023-02-18T12:27:08;10.90;99.90
31639;DHT22;18248;51.522;7.020;2023-02-18T12:30:17;10.80;99.90
31639;DHT22;18248;51.522;7.020;2023-02-18T12:50:18;10.90;99.90
31639;DHT22;18248;51.522;7.020;2023-02-18T12:56:44;10.90;99.90
31639;DHT22;18248;51.522;7.020;2023-02-18T13:00:02;10.90;99.90
31639;DHT22;18248;51.522;7.020;2023-02-18T13:10:04;11.00;99.90
31639;DHT22;18248;51.522;7.020;2023-02-18T13:13:15;11.00;99.90
31639;DHT22;18248;51.522;7.020;2023-02-18T13:16:16;11.00;99.90
31639;DHT22;18248;51.522;7.020;2023-02-18T13:22:26;11.10;99.90
31639;DHT22;18248;51.522;7.020;2023-02-18T13:25:26;11.10;99.90
31639;DHT22;18248;51.522;7.020;2023-02-18T13:28:33;11.10;99.90
31639;DHT22;18248;51.522;7.020;2023-02-18T13:35:07;11.10;99.90
31639;DHT22;18248;51.522;7.020;2023-02-18T13:41:40;11.10;99.90
31639;DHT22;18248;51.522;7.020;2023-02-18T13:47:54;11.10;99.90
31639;DHT22;18248;51.522;7.020;2023-02-18T13:50:59;11.10;99.90
31639;DHT22;18248;51.522;7.020;2023-02-18T13:57:04;11.10;99.90
31639;DHT22;18248;51.522;7.020;2023-02-18T14:00:05;11.20;99.90
31639;DHT22;18248;51.522;7.020;2023-02-18T14:06:33;11.10;99.90
31639;DHT22;18248;51.522;7.020;2023-02-18T14:09:37;11.20;99.90
31639;DHT22;18248;51.522;7.020;2023-02-18T14:15:57;11.20;99.90
31639;DHT22;18248;51.522;7.020;2023-02-18T14:18:59;11.20;99.90
31639;DHT22;18248;51.522;7.020;2023-02-18T14:25:35;11.20;99.90
31639;DHT22;18248;51.522;7.020;2023-02-18T14:28:37;11.20;99.90
31639;DHT22;18248;51.522;7.020;2023-02-18T14:31:46;11.30;99.90
31639;DHT22;18248;51.522;7.020;2023-02-18T14:34:58;11.30;99.90
31639;DHT22;18248;51.522;7.020;2023-02-18T14:38:21;11.30;99.90
31639;DHT22;18248;51.522;7.020;2023-02-18T14:51:30;11.40;99.90
31639;DHT22;18248;51.522;7.020;2023-02-18T14:54:31;11.40;99.90
31639;DHT22;18248;51.522;7.020;2023-02-18T14:57:59;11.40;99.90
31639;DHT22;18248;51.522;7.020;2023-02-18T15:01:05;11.40;99.90
31639;DHT22;18248;51.522;7.020;2023-02-18T15:04:05;11.40;99.90
31639;DHT22;18248;51.522;7.020;2023-02-18T15:07:04;11.40;99.90
31639;DHT22;18248;51.522;7.020;2023-02-18T15:10:13;11.40;99.90
31639;DHT22;18248;51.522;7.020;2023-02-18T15:13:39;11.40;99.90
31639;DHT22;18248;51.522;7.020;2023-02-18T15:16:43;11.40;99.90
31639;DHT22;18248;51.522;7.020;2023-02-18T15:19:51;11.40;99.90
31639;DHT22;18248;51.522;7.020;2023-02-18T15:22:58;11.40;99.90
31639;DHT22;18248;51.522;7.020;2023-02-18T15:25:57;11.50;99.90
31639;DHT22;18248;51.522;7.020;2023-02-18T15:29:04;11.50;99.90
31639;DHT22;18248;51.522;7.020;2023-02-18T15:32:33;11.40;99.90
31639;DHT22;18248;51.522;7.020;2023-02-18T15:35:32;11.50;99.90
31639;DHT22;18248;51.522;7.020;2023-02-18T15:38:31;11.50;99.90
31639;DHT22;18248;51.522;7.020;2023-02-18T15:41:30;11.50;99.90
31639;DHT22;18248;51.522;7.020;2023-02-18T15:44:31;11.50;99.90
31639;DHT22;18248;51.522;7.020;2023-02-18T15:47:31;11.50;99.90
31639;DHT22;18248;51.522;7.020;2023-02-18T15:50:32;11.50;99.90
31639;DHT22;18248;51.522;7.020;2023-02-18T15:53:32;11.50;99.90
31639;DHT22;18248;51.522;7.020;2023-02-18T15:56:39;11.50;99.90
31639;DHT22;18248;51.522;7.020;2023-02-18T16:00:02;11.50;99.90
31639;DHT22;18248;51.522;7.020;2023-02-18T16:03:11;11.50;99.90
31639;DHT22;18248;51.522;7.020;2023-02-18T16:06:22;11.50;99.90
31639;DHT22;18248;51.522;7.020;2023-02-18T16:09:28;11.50;99.90
31639;DHT22;18248;51.522;7.020;2023-02-18T16:12:30;11.60;99.90
31639;DHT22;18248;51.522;7.020;2023-02-18T16:15:37;11.50;99.90
31639;DHT22;18248;51.522;7.020;2023-02-18T16:18:40;11.60;99.90
31639;DHT22;18248;51.522;7.020;2023-02-18T16:21:43;11.60;99.90
31639;DHT22;18248;51.522;7.020;2023-02-18T16:24:42;11.50;99.90
31639;DHT22;18248;51.522;7.020;2023-02-18T16:30:55;11.60;99.90
31639;DHT22;18248;51.522;7.020;2023-02-18T16:33:53;11.50;99.90
31639;DHT22;18248;51.522;7.020;2023-02-18T16:36:52;11.50;99.90
31639;DHT22;18248;51.522;7.020;2023-02-18T16:40:29;11.50;99.90
31639;DHT22;18248;51.522;7.020;2023-02-18T16:43:28;11.50;99.90
31639;DHT22;18248;51.522;7.020;2023-02-18T16:46:29;11.50;99.90
31639;DHT22;18248;51.522;7.020;2023-02-18T16:49:28;11.50;99.90
31639;DHT22;18248;51.522;7.020;2023-02-18T16:52:28;11.50;99.90
31639;DHT22;18248;51.522;7.020;2023-02-18T16:55:29;11.50;99.90
31639;DHT22;18248;51.522;7.020;2023-02-18T16:58:28;11.50;99.90
31639;DHT22;18248;51.522;7.020;2023-02-18T17:01:32;11.50;99.90
31639;DHT22;18248;51.522;7.020;2023-02-18T17:04:32;11.50;99.90
31639;DHT22;18248;51.522;7.020;2023-02-18T17:07:30;11.50;99.90
31639;DHT22;18248;51.522;7.020;2023-02-18T17:10:30;11.50;99.90
31639;DHT22;18248;51.522;7.020;2023-02-18T17:13:29;11.50;99.90
31639;DHT22;18248;51.522;7.020;2023-02-18T17:16:28;11.50;99.90
31639;DHT22;18248;51.522;7.020;2023-02-18T17:19:27;11.50;99.90
31639;DHT22;18248;51.522;7.020;2023-02-18T17:22:26;11.50;99.90
31639;DHT22;18248;51.522;7.020;2023-02-18T17:25:38;11.50;99.90
31639;DHT22;18248;51.522;7.020;2023-02-18T17:28:37;11.50;99.90
31639;DHT22;18248;51.522;7.020;2023-02-18T17:31:39;11.50;99.90
31639;DHT22;18248;51.522;7.020;2023-02-18T17:34:39;11.50;99.90
31639;DHT22;18248;51.522;7.020;2023-02-18T17:37:38;11.50;99.90
31639;DHT22;18248;51.522;7.020;2023-02-18T17:40:36;11.50;99.90
31639;DHT22;18248;51.522;7.020;2023-02-18T17:43:35;11.50;99.90
31639;DHT22;18248;51.522;7.020;2023-02-18T17:46:35;11.50;99.90
31639;DHT22;18248;51.522;7.020;2023-02-18T17:49:33;11.50;99.90
31639;DHT22;18248;51.522;7.020;2023-02-18T17:52:32;11.50;99.90
31639;DHT22;18248;51.522;7.020;2023-02-18T17:55:33;11.50;99.90
31639;DHT22;18248;51.522;7.020;2023-02-18T17:58:32;11.50;99.90
31639;DHT22;18248;51.522;7.020;2023-02-18T18:01:31;11.50;99.90
31639;DHT22;18248;51.522;7.020;2023-02-18T18:04:30;11.50;99.90
31639;DHT22;18248;51.522;7.020;2023-02-18T18:07:28;11.50;99.90
31639;DHT22;18248;51.522;7.020;2023-02-18T18:10:30;11.50;99.90
31639;DHT22;18248;51.522;7.020;2023-02-18T18:13:30;11.50;99.90
31639;DHT22;18248;51.522;7.020;2023-02-18T18:16:32;11.50;99.90
31639;DHT22;18248;51.522;7.020;2023-02-18T18:19:30;11.50;99.90
31639;DHT22;18248;51.522;7.020;2023-02-18T18:22:31;11.50;99.90
31639;DHT22;18248;51.522;7.020;2023-02-18T18:25:36;11.50;99.90
31639;DHT22;18248;51.522;7.020;2023-02-18T18:28:35;11.50;99.90
31639;DHT22;18248;51.522;7.020;2023-02-18T18:31:33;11.40;99.90
31639;DHT22;18248;51.522;7.020;2023-02-18T18:34:34;11.50;99.90
31639;DHT22;18248;51.522;7.020;2023-02-18T18:37:33;11.40;99.90
31639;DHT22;18248;51.522;7.020;2023-02-18T18:40:32;11.50;99.90
31639;DHT22;18248;51.522;7.020;2023-02-18T18:43:31;11.50;99.90
31639;DHT22;18248;51.522;7.020;2023-02-18T18:46:30;11.50;99.90
31639;DHT22;18248;51.522;7.020;2023-02-18T18:49:28;11.50;99.90
31639;DHT22;18248;51.522;7.020;2023-02-18T18:52:27;11.50;99.90
31639;DHT22;18248;51.522;7.020;2023-02-18T18:55:35;11.50;99.90
31639;DHT22;18248;51.522;7.020;2023-02-18T18:58:33;11.50;99.90
31639;DHT22;18248;51.522;7.020;2023-02-18T19:01:32;11.50;99.90
31639;DHT22;18248;51.522;7.020;2023-02-18T19:04:30;11.50;99.90
31639;DHT22;18248;51.522;7.020;2023-02-18T19:07:30;11.50;99.90
31639;DHT22;18248;51.522;7.020;2023-02-18T19:10:31;11.50;99.90
31639;DHT22;18248;51.522;7.020;2023-02-18T19:13:31;11.50;99.90
31639;DHT22;18248;51.522;7.020;2023-02-18T19:16:33;11.50;99.90
31639;DHT22;18248;51.522;7.020;2023-02-18T19:19:34;11.50;99.90
31639;DHT22;18248;51.522;7.020;2023-02-18T19:22:32;11.50;99.90
31639;DHT22;18248;51.522;7.020;2023-02-18T19:25:31;11.50;99.90
31639;DHT22;18248;51.522;7.020;2023-02-18T19:28:30;11.50;99.90
31639;DHT22;18248;51.522;7.020;2023-02-18T19:31:29;11.40;99.90
31639;DHT22;18248;51.522;7.020;2023-02-18T19:34:27;11.40;99.90
31639;DHT22;18248;51.522;7.020;2023-02-18T19:37:30;11.40;99.90
31639;DHT22;18248;51.522;7.020;2023-02-18T19:40:29;11.40;99.90
31639;DHT22;18248;51.522;7.020;2023-02-18T19:43:28;11.40;99.90
31639;DHT22;18248;51.522;7.020;2023-02-18T19:46:26;11.40;99.90
31639;DHT22;18248;51.522;7.020;2023-02-18T19:49:26;11.40;99.90
31639;DHT22;18248;51.522;7.020;2023-02-18T19:52:25;11.40;99.90
31639;DHT22;18248;51.522;7.020;2023-02-18T19:55:23;11.40;99.90
31639;DHT22;18248;51.522;7.020;2023-02-18T19:58:22;11.40;99.90
31639;DHT22;18248;51.522;7.020;2023-02-18T20:01:21;11.40;99.90
31639;DHT22;18248;51.522;7.020;2023-02-18T20:04:19;11.40;99.90
31639;DHT22;18248;51.522;7.020;2023-02-18T20:07:19;11.40;99.90
31639;DHT22;18248;51.522;7.020;2023-02-18T20:10:18;11.30;99.90
31639;DHT22;18248;51.522;7.020;2023-02-18T20:13:17;11.30;99.90
31639;DHT22;18248;51.522;7.020;2023-02-18T20:16:15;11.40;99.90
31639;DHT22;18248;51.522;7.020;2023-02-18T20:19:14;11.40;99.90
31639;DHT22;18248;51.522;7.020;2023-02-18T20:22:13;11.40;99.90
31639;DHT22;18248;51.522;7.020;2023-02-18T20:25:11;11.40;99.90
31639;DHT22;18248;51.522;7.020;2023-02-18T20:28:10;11.40;99.90
31639;DHT22;18248;51.522;7.020;2023-02-18T20:31:10;11.40;99.90
31639;DHT22;18248;51.522;7.020;2023-02-18T20:34:09;11.30;99.90
31639;DHT22;18248;51.522;7.020;2023-02-18T20:37:08;11.30;99.90
31639;DHT22;18248;51.522;7.020;2023-02-18T20:40:06;11.30;99.90
31639;DHT22;18248;51.522;7.020;2023-02-18T20:43:05;11.40;99.90
31639;DHT22;18248;51.522;7.020;2023-02-18T20:46:06;11.40;99.90
31639;DHT22;18248;51.522;7.020;2023-02-18T20:49:06;11.30;99.90
31639;DHT22;18248;51.522;7.020;2023-02-18T20:52:06;11.40;99.90
31639;DHT22;18248;51.522;7.020;2023-02-18T20:55:05;11.40;99.90
31639;DHT22;18248;51.522;7.020;2023-02-18T20:58:04;11.40;99.90
31639;DHT22;18248;51.522;7.020;2023-02-18T21:01:05;11.40;99.90
31639;DHT22;18248;51.522;7.020;2023-02-18T21:04:04;11.40;99.90
31639;DHT22;18248;51.522;7.020;2023-02-18T21:07:03;11.40;99.90
31639;DHT22;18248;51.522;7.020;2023-02-18T21:10:01;11.40;99.90
31639;DHT22;18248;51.522;7.020;2023-02-18T21:13:01;11.40;99.90
31639;DHT22;18248;51.522;7.020;2023-02-18T21:16:02;11.40;99.90
31639;DHT22;18248;51.522;7.020;2023-02-18T21:19:01;11.40;99.90
31639;DHT22;18248;51.522;7.020;2023-02-18T21:21:59;11.40;99.90
31639;DHT22;18248;51.522;7.020;2023-02-18T21:24:58;11.40;99.90
31639;DHT22;18248;51.522;7.020;2023-02-18T21:27:57;11.40;99.90
31639;DHT22;18248;51.522;7.020;2023-02-18T21:30:56;11.40;99.90
31639;DHT22;18248;51.522;7.020;2023-02-18T21:33:55;11.40;99.90
31639;DHT22;18248;51.522;7.020;2023-02-18T21:36:53;11.40;99.90
31639;DHT22;18248;51.522;7.020;2023-02-18T21:39:52;11.40;99.90
31639;DHT22;18248;51.522;7.020;2023-02-18T21:42:50;11.40;99.90
31639;DHT22;18248;51.522;7.020;2023-02-18T21:45:49;11.40;99.90
31639;DHT22;18248;51.522;7.020;2023-02-18T21:48:48;11.40;99.90
31639;DHT22;18248;51.522;7.020;2023-02-18T21:52:09;11.40;99.90
31639;DHT22;18248;51.522;7.020;2023-02-18T21:55:08;11.30;99.90
31639;DHT22;18248;51.522;7.020;2023-02-18T21:58:07;11.40;99.90
31639;DHT22;18248;51.522;7.020;2023-02-18T22:01:06;11.30;99.90
31639;DHT22;18248;51.522;7.020;2023-02-18T22:04:04;11.40;99.90
31639;DHT22;18248;51.522;7.020;2023-02-18T22:07:03;11.30;99.90
31639;DHT22;18248;51.522;7.020;2023-02-18T22:10:02;11.30;99.90
31639;DHT22;18248;51.522;7.020;2023-02-18T22:13:01;11.30;99.90
31639;DHT22;18248;51.522;7.020;2023-02-18T22:16:00;11.20;99.90
31639;DHT22;18248;51.522;7.020;2023-02-18T22:18:58;11.20;99.90
31639;DHT22;18248;51.522;7.020;2023-02-18T22:21:57;11.30;99.90
31639;DHT22;18248;51.522;7.020;2023-02-18T22:24:55;11.20;99.90
31639;DHT22;18248;51.522;7.020;2023-02-18T22:27:54;11.20;99.90
31639;DHT22;18248;51.522;7.020;2023-02-18T22:30:52;11.20;99.90
31639;DHT22;18248;51.522;7.020;2023-02-18T22:33:51;11.20;99.90
31639;DHT22;18248;51.522;7.020;2023-02-18T22:36:50;11.20;99.90
31639;DHT22;18248;51.522;7.020;2023-02-18T22:39:49;11.30;99.90
31639;DHT22;18248;51.522;7.020;2023-02-18T22:42:48;11.30;99.90
31639;DHT22;18248;51.522;7.020;2023-02-18T22:45:48;11.30;99.90
31639;DHT22;18248;51.522;7.020;2023-02-18T22:48:46;11.30;99.90